Cherokee, Texas
Current Conditions -  °F | °C
As of 8:10 PM on Sunday 25 Jan 2015 (Local Time) from KAQO Reporting Station
Clear Clear  
Wind Chill: 52°   Ceiling: Unl
Heat Index: 52°   Visibility: 10mi
Dew Point: 32°   Wind: 3mph
Humidity: 47%   Direction: 280°W
Pressure: 30.24"   Gusts: NA
Location:  30.98°N, 98.71°W
Report Text: KAQO 260210Z AUTO 28003KT 10SM CLR 11/00 A3024 RMK AO2
Loading
Personal Weather Stations






























Interactive Weather Map New forecast layout! Learn more

10-Day Weather Forecast

Advertisements
Track Severe Weather on mobile